Weather at Addis Ababa Bole International Airport

Public forecast

Using degrees Celsius for public forecast. Weather courtesy of forecast.io.

Current aviation weather report (METAR) for Addis Ababa Bole International Airport

2024/05/30 12:00 (retrieved 1 hour ago)

HAAB 301200Z 04004KT 9999 SCT024 28/01 Q1023 NOSIG

Aviation forecast (TAF) for Addis Ababa Bole International Airport

Forecast is more than 6 hours old.

2024/05/30 06:18 (retrieved 7 hours ago)

TAF TAF HAAB 300330Z 3006/3112 03003KT 9999 SCT030 SCT080 BECMG 3008/3015 09009KT